Time;durP1;ratioP1;P1;durP2;ratioP2;P2;SDS_P1;SDS_P2;PMS_P1;PMS_P2;Temp;Humidity;BMP_temperature;BMP_pressure;BME280_temperature;BME280_humidity;BME280_pressure;Samples;Min_cycle;Max_cycle;Signal;HPM_P1;HPM_P2
2022/05/19 00:00:00;;;;;;;144.95;61.92;;;;;;;28.38;59.16;97533.50;4845984;29;20552;-65
2022/05/19 00:02:49;;;;;;;157.73;61.63;;;;;;;28.34;59.91;97534.88;4870953;29;20156;-65
2022/05/19 00:05:38;;;;;;;133.52;60.63;;;;;;;28.32;59.99;97526.31;4881634;29;20128;-65
2022/05/19 00:08:34;;;;;;;133.18;58.88;;;;;;;28.26;61.81;97526.19;4870866;29;20112;-65
2022/05/19 00:11:15;;;;;;;131.63;59.95;;;;;;;28.27;60.46;97523.38;4855967;29;20553;-65
2022/05/19 00:14:05;;;;;;;139.35;58.13;;;;;;;28.25;60.49;97530.72;4871985;29;20116;-65
2022/05/19 00:16:48;;;;;;;125.13;58.72;;;;;;;28.27;60.16;97523.38;4873044;29;20163;-65
2022/05/19 00:19:37;;;;;;;137.40;58.05;;;;;;;28.25;61.31;97522.75;4894156;29;20057;-68
2022/05/19 00:22:33;;;;;;;153.05;61.45;;;;;;;28.34;55.08;97529.56;4890987;29;20052;-66
2022/05/19 00:30:06;;;;;;;136.45;58.30;;;;;;;28.38;58.58;97538.81;4866626;29;20106;-65
2022/05/19 00:32:55;;;;;;;133.68;58.50;;;;;;;28.37;59.16;97544.28;4877368;29;20056;-65
2022/05/19 00:35:46;;;;;;;140.38;56.78;;;;;;;28.38;58.40;97545.94;4868248;29;20124;-65
2022/05/19 00:38:35;;;;;;;123.82;56.75;;;;;;;28.40;59.69;97549.22;4874899;29;20045;-65
2022/05/19 00:41:25;;;;;;;133.90;58.60;;;;;;;28.41;59.24;97548.22;4874327;29;20044;-65
2022/05/19 00:44:07;;;;;;;116.18;56.72;;;;;;;28.40;62.34;97554.53;4855879;29;20049;-65
2022/05/19 00:47:00;;;;;;;140.00;57.80;;;;;;;28.37;61.72;97549.59;4855888;29;20053;-65
2022/05/19 00:49:44;;;;;;;128.07;57.83;;;;;;;28.38;61.96;97551.22;4857633;29;20449;-65
2022/05/19 00:52:56;;;;;;;118.72;53.25;;;;;;;28.38;64.75;97556.53;4864538;29;20060;-65
2022/05/19 00:55:47;;;;;;;120.90;52.35;;;;;;;28.40;68.93;97565.94;4868365;29;20053;-65
2022/05/19 00:58:44;;;;;;;126.85;54.80;;;;;;;28.44;89.76;97561.06;4854792;29;20155;-66
2022/05/19 01:01:26;;;;;;;120.15;53.95;;;;;;;28.13;94.85;97564.75;4870241;29;20593;-65
2022/05/19 01:04:32;;;;;;;117.32;55.78;;;;;;;28.12;97.22;97562.28;4873074;29;20073;-65
2022/05/19 01:07:19;;;;;;;122.95;53.65;;;;;;;28.09;97.93;97567.97;4871819;29;20072;-66
2022/05/19 01:10:10;;;;;;;109.13;52.92;;;;;;;28.05;100.00;97566.66;4855678;29;20053;-66
2022/05/19 01:12:59;;;;;;;109.07;52.00;;;;;;;28.01;99.30;97565.41;4854385;29;20145;-67
2022/05/19 01:15:45;;;;;;;108.95;50.85;;;;;;;28.08;100.00;97572.44;4854504;29;20064;-65
2022/05/19 01:18:36;;;;;;;107.78;48.70;;;;;;;28.08;98.83;97574.25;4854170;29;20477;-65
2022/05/19 01:21:21;;;;;;;115.55;47.22;;;;;;;28.14;100.00;97565.56;4844424;29;20045;-65
2022/05/19 01:24:27;;;;;;;120.68;46.70;;;;;;;28.20;97.60;97571.97;4858785;29;20414;-65
2022/05/19 01:27:10;;;;;;;95.90;42.47;;;;;;;28.28;87.25;97572.72;4863032;29;20045;-66
2022/05/19 01:30:05;;;;;;;108.95;43.85;;;;;;;28.48;100.00;97581.75;4908457;29;20123;-66
2022/05/19 01:32:41;;;;;;;97.22;40.03;;;;;;;28.40;91.45;97576.53;4910298;29;20052;-65
2022/05/19 01:35:33;;;;;;;94.78;40.28;;;;;;;28.52;95.44;97580.34;4908528;29;20131;-65
2022/05/19 01:38:40;;;;;;;90.13;41.03;;;;;;;28.61;94.79;97581.06;4927857;29;20139;-65
2022/05/19 01:42:13;;;;;;;94.63;36.65;;;;;;;28.74;87.54;97585.66;4908515;29;20055;-65
2022/05/19 01:45:15;;;;;;;74.97;35.97;;;;;;;28.96;97.31;97592.69;4908769;29;20131;-65
2022/05/19 01:48:38;;;;;;;82.90;34.83;;;;;;;29.06;86.72;97595.84;4909783;29;20139;-65
2022/05/19 01:51:40;;;;;;;93.47;33.30;;;;;;;29.33;68.45;97594.25;4907394;29;20314;-65
2022/05/19 01:54:39;;;;;;;77.03;33.30;;;;;;;29.65;68.09;97593.75;4909465;29;20048;-65
2022/05/19 01:57:39;;;;;;;93.97;33.10;;;;;;;30.03;69.12;97609.34;4910812;29;20064;-65
2022/05/19 02:00:29;;;;;;;83.82;33.53;;;;;;;30.31;71.05;97615.44;4911455;29;20135;-66
2022/05/19 02:03:23;;;;;;;82.07;32.45;;;;;;;30.48;78.86;97609.78;4918523;29;20080;-64
2022/05/19 02:06:18;;;;;;;81.28;32.20;;;;;;;30.57;56.50;97624.59;4911534;29;20075;-63
2022/05/19 02:09:16;;;;;;;98.05;33.58;;;;;;;30.93;57.83;97621.63;4909779;29;20044;-64
2022/05/19 02:12:01;;;;;;;81.63;32.50;;;;;;;31.16;66.82;97627.44;4910652;29;20134;-64
2022/05/19 02:15:05;;;;;;;71.82;29.02;;;;;;;31.56;74.90;97625.63;4908774;29;20080;-64
2022/05/19 02:17:49;;;;;;;68.72;28.45;;;;;;;31.72;67.64;97643.09;4910032;29;20055;-64
2022/05/19 02:20:40;;;;;;;77.40;27.88;;;;;;;31.81;63.97;97642.69;4909462;28;20068;-65
2022/05/19 02:23:23;;;;;;;66.10;26.08;;;;;;;32.12;67.94;97655.34;4909490;29;20044;-65
2022/05/19 02:26:12;;;;;;;79.35;26.33;;;;;;;32.22;49.93;97661.13;4908969;29;20063;-65
2022/05/19 02:29:07;;;;;;;65.57;25.70;;;;;;;32.67;58.19;97661.16;4909721;28;20047;-65
2022/05/19 02:31:56;;;;;;;72.18;24.58;;;;;;;32.90;56.64;97658.03;4909648;29;20824;-66
2022/05/19 02:34:38;;;;;;;71.93;26.00;;;;;;;33.11;52.82;97652.38;4893200;29;20056;-65
2022/05/19 02:37:34;;;;;;;62.95;23.30;;;;;;;33.21;43.85;97660.75;4908103;29;20130;-65
2022/05/19 02:40:12;;;;;;;64.45;20.92;;;;;;;33.66;47.37;97664.16;4926096;29;20043;-66
2022/05/19 02:43:01;;;;;;;61.75;21.30;;;;;;;33.78;52.30;97665.09;4927455;29;20040;-66
2022/05/19 02:45:52;;;;;;;55.55;21.20;;;;;;;33.94;49.85;97670.94;4915338;29;20921;-66
2022/05/19 02:48:34;;;;;;;56.42;19.88;;;;;;;34.01;40.54;97674.38;4909206;29;20044;-65
2022/05/19 02:51:23;;;;;;;53.33;19.27;;;;;;;34.19;46.81;97672.56;4907920;29;20143;-66
2022/05/19 02:54:05;;;;;;;70.05;20.33;;;;;;;34.44;44.82;97675.22;4908289;29;20048;-65
2022/05/19 02:56:57;;;;;;;52.50;19.30;;;;;;;34.65;44.04;97670.44;4909146;29;20039;-65
2022/05/19 02:59:39;;;;;;;48.50;16.67;;;;;;;34.82;56.73;97666.16;4922791;29;20356;-65
2022/05/19 03:02:29;;;;;;;52.35;17.52;;;;;;;34.94;54.97;97677.75;4907714;29;20150;-66
2022/05/19 03:05:15;;;;;;;48.90;19.08;;;;;;;34.96;55.64;97667.63;4908542;29;20068;-66
2022/05/19 03:08:04;;;;;;;48.28;17.08;;;;;;;34.97;47.30;97671.91;4909315;29;20044;-66
2022/05/19 03:10:53;;;;;;;50.67;16.80;;;;;;;35.33;44.65;97673.72;4908779;29;20440;-66
2022/05/19 03:13:42;;;;;;;56.03;18.00;;;;;;;35.55;42.79;97676.69;4909111;29;20139;-67
2022/05/19 03:16:24;;;;;;;44.95;16.60;;;;;;;35.63;39.77;97677.19;4908735;28;20605;-66
2022/05/19 03:19:21;;;;;;;46.15;16.27;;;;;;;35.86;37.64;97676.44;4908140;29;20142;-67
2022/05/19 03:22:04;;;;;;;65.13;20.40;;;;;;;35.75;39.12;97682.63;4908040;29;20052;-67
2022/05/19 03:24:53;;;;;;;42.28;15.68;;;;;;;36.05;44.78;97672.59;4906909;29;20051;-66
2022/05/19 03:27:37;;;;;;;47.05;14.68;;;;;;;36.24;36.77;97683.25;4926490;29;20557;-68
2022/05/19 03:30:35;;;;;;;53.60;15.55;;;;;;;36.57;38.42;97685.28;4926711;28;20748;-67
2022/05/19 03:33:24;;;;;;;47.38;16.20;;;;;;;36.22;35.41;97678.13;4905656;29;20071;-67
2022/05/19 03:36:14;;;;;;;44.65;15.38;;;;;;;36.74;37.46;97684.34;4908376;29;20068;-67
2022/05/19 03:38:56;;;;;;;49.88;16.20;;;;;;;36.85;37.80;97692.63;4908490;29;20235;-67
2022/05/19 03:41:45;;;;;;;41.35;14.45;;;;;;;36.78;34.93;97688.22;4907184;29;20052;-67
2022/05/19 03:44:28;;;;;;;44.90;15.60;;;;;;;37.14;37.60;97692.44;4908113;29;20060;-68
2022/05/19 03:47:17;;;;;;;43.53;15.15;;;;;;;37.20;33.94;97698.72;4907768;29;20115;-67
2022/05/19 03:49:59;;;;;;;59.25;18.48;;;;;;;37.06;36.75;97691.97;4908548;29;20242;-67
2022/05/19 03:52:54;;;;;;;51.42;16.13;;;;;;;37.38;36.85;97687.75;4911447;29;20090;-68
2022/05/19 03:55:45;;;;;;;52.28;17.90;;;;;;;37.67;36.77;97698.53;4893191;29;20051;-67
2022/05/19 03:58:34;;;;;;;46.50;16.35;;;;;;;37.87;37.95;97693.47;4892669;29;20394;-67
2022/05/19 04:01:19;;;;;;;46.97;15.90;;;;;;;37.60;36.47;97692.50;4906895;29;20569;-67
2022/05/19 04:04:09;;;;;;;46.30;16.58;;;;;;;37.75;33.28;97690.88;4930386;29;20142;-67
2022/05/19 04:06:52;;;;;;;45.80;15.13;;;;;;;38.12;41.84;97682.31;4924878;29;20048;-66
2022/05/19 04:09:41;;;;;;;41.88;15.82;;;;;;;38.50;36.73;97689.59;4892702;29;20100;-65
2022/05/19 04:12:24;;;;;;;;;;;;;;;38.01;34.51;97694.75;4891756;29;20100;-66
2022/05/19 04:15:14;;;;;;;47.10;14.07;;;;;;;37.46;34.51;97683.88;4894648;29;19938;-67
2022/05/19 04:18:10;;;;;;;52.67;14.52;;;;;;;37.91;34.44;97686.56;4884991;29;20048;-66
2022/05/19 04:20:46;;;;;;;48.08;14.20;;;;;;;38.03;31.98;97679.19;4910018;29;20056;-66
2022/05/19 04:23:34;;;;;;;40.10;13.35;;;;;;;38.24;33.21;97680.31;4911394;29;20068;-66
2022/05/19 04:26:23;;;;;;;46.35;13.18;;;;;;;38.72;35.84;97685.03;4911725;29;20527;-67
2022/05/19 04:29:05;;;;;;;43.83;13.98;;;;;;;38.56;32.17;97683.22;4911975;29;20043;-66
2022/05/19 04:32:00;;;;;;;44.35;13.60;;;;;;;38.33;32.31;97683.41;4916493;28;20067;-69
2022/05/19 04:34:55;;;;;;;53.95;14.02;;;;;;;38.41;36.08;97681.09;4910515;29;20488;-67
2022/05/19 04:37:45;;;;;;;42.47;14.02;;;;;;;38.97;36.27;97685.38;4911699;29;20052;-66
2022/05/19 04:40:34;;;;;;;45.80;13.75;;;;;;;38.71;33.90;97679.94;4910902;29;20500;-66
2022/05/19 04:43:32;;;;;;;57.42;13.55;;;;;;;39.06;36.78;97679.53;4910296;29;20058;-66
2022/05/19 04:46:08;;;;;;;38.63;13.18;;;;;;;39.17;33.74;97681.28;4914379;29;20052;-68
2022/05/19 04:48:57;;;;;;;41.97;11.35;;;;;;;38.98;33.25;97678.94;4911869;29;20460;-65
2022/05/19 04:51:39;;;;;;;46.45;12.40;;;;;;;38.94;32.17;97685.91;4912031;29;20044;-65
2022/05/19 04:54:28;;;;;;;42.38;12.23;;;;;;;39.21;31.79;97679.69;4911478;29;20076;-67
2022/05/19 04:57:17;;;;;;;33.95;10.80;;;;;;;39.30;36.73;97670.91;4910560;29;20482;-66
2022/05/19 05:00:08;;;;;;;45.13;11.55;;;;;;;39.40;32.94;97673.75;4911542;29;20080;-68
2022/05/19 05:02:50;;;;;;;37.47;10.98;;;;;;;39.48;30.50;97675.16;4910303;29;20450;-69
2022/05/19 05:05:39;;;;;;;41.13;12.98;;;;;;;39.25;33.54;97670.88;4910409;29;20354;-70
2022/05/19 05:08:28;;;;;;;41.22;12.57;;;;;;;39.29;31.59;97666.56;4908976;29;20930;-69
2022/05/19 05:11:17;;;;;;;38.58;11.80;;;;;;;39.43;33.00;97669.72;4910399;29;20115;-67
2022/05/19 05:13:59;;;;;;;41.22;11.23;;;;;;;39.31;34.21;97660.94;4904892;29;20186;-65
2022/05/19 05:16:57;;;;;;;36.47;10.35;;;;;;;38.70;31.67;97660.25;4911450;29;20056;-65
2022/05/19 05:19:33;;;;;;;38.60;9.95;;;;;;;38.82;33.34;97655.53;4925164;29;20048;-69
2022/05/19 05:22:21;;;;;;;;;;;;;;;39.08;33.54;97662.06;4929190;29;20071;-69
2022/05/19 05:25:18;;;;;;;47.03;11.30;;;;;;;39.48;31.81;97656.28;4922224;28;20041;-67
2022/05/19 05:28:08;;;;;;;39.78;10.00;;;;;;;39.28;31.79;97654.16;4925243;29;20076;-67
2022/05/19 05:30:51;;;;;;;;;;;;;;;39.42;32.13;97654.63;4916363;29;20055;-67
2022/05/19 05:33:47;;;;;;;33.30;9.38;;;;;;;39.07;30.83;97656.91;4913684;29;19938;-65
2022/05/19 05:36:36;;;;;;;41.35;11.38;;;;;;;39.83;35.15;97655.78;4910653;29;20087;-66
2022/05/19 05:39:25;;;;;;;32.75;10.40;;;;;;;39.73;31.61;97661.88;4909941;29;20052;-66
2022/05/19 05:42:14;;;;;;;37.50;10.25;;;;;;;39.52;28.69;97660.06;4909121;29;20388;-65
2022/05/19 05:45:03;;;;;;;32.33;9.13;;;;;;;39.89;34.87;97654.75;4910313;29;20554;-65
2022/05/19 05:47:45;;;;;;;34.35;10.05;;;;;;;39.86;31.62;97654.44;4892670;29;20044;-66
2022/05/19 05:50:34;;;;;;;34.95;10.75;;;;;;;39.98;34.18;97650.50;4892342;29;20108;-66
2022/05/19 05:53:23;;;;;;;37.47;10.57;;;;;;;39.31;27.65;97647.44;4892440;29;20124;-69
2022/05/19 05:56:05;;;;;;;37.35;10.90;;;;;;;39.61;33.42;97647.75;4893060;29;20072;-67
2022/05/19 05:58:54;;;;;;;37.85;10.65;;;;;;;39.64;29.42;97643.72;4915364;29;20052;-67
2022/05/19 06:01:36;;;;;;;43.42;10.57;;;;;;;39.88;29.92;97630.72;4921650;29;20059;-70
2022/05/19 06:04:33;;;;;;;38.15;10.60;;;;;;;40.04;33.18;97624.34;4928696;29;20134;-69
2022/05/19 06:07:10;;;;;;;39.08;10.05;;;;;;;39.93;30.39;97625.34;4898663;29;20050;-71
2022/05/19 06:09:59;;;;;;;39.63;12.65;;;;;;;39.62;29.45;97619.72;4929656;29;20138;-66
2022/05/19 06:12:41;;;;;;;40.90;10.07;;;;;;;39.81;32.93;97612.03;4918080;29;20135;-68
2022/05/19 06:15:30;;;;;;;36.75;10.43;;;;;;;40.02;32.77;97610.28;4908689;29;20440;-68
2022/05/19 06:18:13;;;;;;;;;;;;;;;39.98;28.61;97612.72;4908879;29;20054;-68
2022/05/19 06:21:09;;;;;;;48.78;11.50;;;;;;;39.73;28.95;97605.22;4907237;29;20314;-67
2022/05/19 06:23:46;;;;;;;27.38;10.05;;;;;;;39.99;30.47;97603.53;4910239;29;20060;-67
2022/05/19 06:26:39;;;;;;;45.80;8.90;;;;;;;39.77;30.30;97603.63;4906366;29;20048;-67
2022/05/19 06:29:22;;;;;;;39.75;10.10;;;;;;;39.54;28.40;97604.00;4910147;29;20044;-65
2022/05/19 06:32:11;;;;;;;34.88;10.82;;;;;;;39.99;32.92;97600.81;4926877;29;20161;-68
2022/05/19 06:34:54;;;;;;;;;;;;;;;40.01;29.68;97603.25;4926801;29;20118;-66
2022/05/19 06:37:43;;;;;;;50.53;11.23;;;;;;;39.89;28.50;97597.28;4928938;29;19926;-67
2022/05/19 06:40:26;;;;;;;44.20;10.90;;;;;;;39.87;31.60;97588.63;4928816;29;20048;-67
2022/05/19 06:43:15;;;;;;;42.15;10.07;;;;;;;39.44;31.49;97586.91;4927774;29;20483;-68
2022/05/19 06:45:57;;;;;;;58.15;12.73;;;;;;;39.39;31.51;97583.13;4927895;29;20071;-68
2022/05/19 06:48:48;;;;;;;43.22;10.10;;;;;;;39.25;31.58;97573.00;4928438;29;20134;-68
2022/05/19 06:51:30;;;;;;;;;;;;;;;39.23;35.80;97569.75;4929924;29;20062;-68
2022/05/19 06:54:23;;;;;;;27.38;9.00;;;;;;;39.13;35.59;97559.69;4928785;29;19962;-68
2022/05/19 06:57:05;;;;;;;41.90;12.10;;;;;;;39.06;32.07;97574.44;4929201;29;20710;-67
2022/05/19 07:00:01;;;;;;;47.95;10.75;;;;;;;38.98;29.08;97565.75;4923160;29;20048;-68
2022/05/19 07:02:41;;;;;;;31.30;10.23;;;;;;;39.03;32.10;97549.63;4910211;29;20464;-68
2022/05/19 07:05:35;;;;;;;30.70;8.65;;;;;;;38.95;34.12;97539.31;4910129;29;20111;-68
2022/05/19 07:08:18;;;;;;;43.70;11.13;;;;;;;38.80;32.35;97549.09;4923085;29;20697;-67
2022/05/19 07:11:24;;;;;;;31.83;10.95;;;;;;;38.66;35.39;97536.03;4929773;29;20334;-68
2022/05/19 07:14:15;;;;;;;37.42;10.50;;;;;;;39.00;30.41;97539.38;4928242;29;20040;-68
2022/05/19 07:17:11;;;;;;;42.90;10.40;;;;;;;39.13;30.63;97532.72;4929039;29;20047;-66
2022/05/19 07:23:02;;;;;;;32.85;10.52;;;;;;;39.27;32.51;97522.34;4899635;29;20638;-68
2022/05/19 07:25:38;;;;;;;39.22;10.48;;;;;;;39.41;32.20;97512.75;4887262;29;20080;-68
2022/05/19 07:28:27;;;;;;;48.28;13.75;;;;;;;39.52;27.69;97509.03;4892910;29;20131;-68
2022/05/19 07:31:10;;;;;;;48.93;10.93;;;;;;;39.54;28.60;97506.09;4893594;29;20049;-69
2022/05/19 07:33:59;;;;;;;41.30;11.52;;;;;;;39.79;30.10;97504.38;4929489;29;20063;-68
2022/05/19 07:36:41;;;;;;;56.15;11.65;;;;;;;39.70;29.06;97497.84;4934230;29;20052;-67
2022/05/19 07:39:30;;;;;;;34.38;10.63;;;;;;;39.86;27.47;97503.34;4934929;29;20071;-70
2022/05/19 07:42:12;;;;;;;47.13;11.23;;;;;;;39.73;29.30;97489.22;4933903;29;20055;-68
2022/05/19 07:45:01;;;;;;;40.92;10.13;;;;;;;39.97;31.22;97488.81;4913482;28;20044;-67
2022/05/19 07:47:44;;;;;;;;;;;;;;;39.71;32.38;97477.06;4912962;29;20139;-68
2022/05/19 07:50:33;;;;;;;26.15;9.75;;;;;;;39.45;31.96;97469.91;4912811;29;20323;-67
2022/05/19 07:53:16;;;;;;;;;;;;;;;39.36;34.37;97472.25;4916238;29;20047;-67
2022/05/19 07:56:12;;;;;;;39.08;11.27;;;;;;;39.22;37.10;97468.38;4917170;29;20421;-68
2022/05/19 07:58:48;;;;;;;37.42;11.57;;;;;;;39.17;32.49;97460.25;4913162;29;20052;-67
2022/05/19 08:01:40;;;;;;;37.47;9.95;;;;;;;39.04;34.97;97459.63;4925546;29;20047;-67
2022/05/19 08:04:24;;;;;;;39.47;10.38;;;;;;;39.11;33.19;97464.00;4927049;29;20052;-66
2022/05/19 08:07:13;;;;;;;57.95;12.20;;;;;;;39.16;30.53;97461.34;4917382;29;20047;-66
2022/05/19 08:16:26;;;;;;;40.70;12.27;;;;;;;39.41;32.44;97434.56;4835429;29;20500;-67
2022/05/19 08:19:08;;;;;;;37.33;11.75;;;;;;;39.45;30.06;97440.25;4912900;29;20048;-68
2022/05/19 08:21:57;;;;;;;40.08;10.32;;;;;;;39.49;30.50;97435.97;4913168;29;20159;-67
2022/05/19 08:24:46;;;;;;;29.55;8.95;;;;;;;39.59;27.23;97423.31;4921602;29;20047;-67
2022/05/19 08:27:36;;;;;;;51.03;10.60;;;;;;;39.66;27.66;97420.41;4931552;29;20479;-68
2022/05/19 08:30:26;;;;;;;37.42;8.93;;;;;;;39.65;31.21;97418.78;4931103;29;20158;-67
2022/05/19 08:33:12;;;;;;;41.90;9.85;;;;;;;39.68;27.43;97416.34;4930396;29;20062;-68
2022/05/19 08:36:02;;;;;;;34.60;9.57;;;;;;;39.68;30.98;97404.75;4929593;29;20063;-68
2022/05/19 08:38:51;;;;;;;43.40;11.02;;;;;;;39.66;30.36;97402.34;4930235;29;20107;-68
2022/05/19 08:41:52;;;;;;;45.97;10.63;;;;;;;39.60;29.63;97392.59;4930916;29;20052;-68
2022/05/19 08:44:49;;;;;;;40.00;10.52;;;;;;;39.48;31.50;97389.31;4930527;29;20138;-67
2022/05/19 08:47:37;;;;;;;35.97;10.52;;;;;;;39.49;33.00;97382.84;4946060;29;20056;-69
2022/05/19 08:50:43;;;;;;;37.47;10.35;;;;;;;39.37;32.31;97374.09;4911760;29;20056;-66
2022/05/19 08:53:36;;;;;;;59.33;11.10;;;;;;;39.38;31.37;97379.28;4911135;29;20711;-65
2022/05/19 08:56:46;;;;;;;45.30;10.02;;;;;;;39.46;30.09;97364.47;4912194;29;20082;-66
2022/05/19 08:59:58;;;;;;;54.47;10.82;;;;;;;39.53;29.92;97364.22;4912377;29;20064;-66
2022/05/19 09:02:45;;;;;;;42.85;9.38;;;;;;;39.51;29.12;97364.53;4909144;29;20044;-68
2022/05/19 09:06:01;;;;;;;62.40;11.52;;;;;;;39.61;27.42;97356.44;4911114;29;20060;-66
2022/05/19 09:08:51;;;;;;;31.52;8.40;;;;;;;39.60;26.86;97349.44;4912122;29;20373;-65
2022/05/19 09:12:10;;;;;;;44.78;8.68;;;;;;;39.37;26.59;97347.97;4910554;29;20099;-66
2022/05/19 09:14:53;;;;;;;47.25;8.50;;;;;;;39.36;27.09;97342.81;4911172;29;20044;-66
2022/05/19 09:17:46;;;;;;;44.95;9.77;;;;;;;39.32;28.40;97330.97;4911810;29;20424;-66
2022/05/19 09:20:39;;;;;;;48.67;9.80;;;;;;;39.46;26.63;97331.31;4910025;29;20111;-67
2022/05/19 09:23:28;;;;;;;37.03;8.63;;;;;;;39.24;30.10;97324.19;4909980;29;20072;-66
2022/05/19 09:26:32;;;;;;;61.17;10.15;;;;;;;39.38;29.55;97327.25;4911472;29;20048;-67
2022/05/19 09:29:36;;;;;;;38.65;8.68;;;;;;;39.18;29.63;97316.34;4911293;29;20143;-67
2022/05/19 09:32:29;;;;;;;40.45;9.10;;;;;;;38.95;31.08;97318.34;4911038;29;20055;-67
2022/05/19 09:35:32;;;;;;;43.83;10.20;;;;;;;38.88;32.42;97304.28;4909852;28;20067;-67
2022/05/19 09:38:18;;;;;;;45.67;9.63;;;;;;;38.97;28.69;97308.16;4908348;29;20138;-67
2022/05/19 09:41:34;;;;;;;30.63;7.40;;;;;;;38.86;28.54;97298.38;4911745;29;20052;-68
2022/05/19 09:44:21;;;;;;;37.65;9.30;;;;;;;38.80;28.28;97294.00;4903531;29;20048;-67
2022/05/19 09:47:29;;;;;;;26.92;8.45;;;;;;;38.69;30.79;97283.44;4911372;29;20082;-67
2022/05/19 09:50:16;;;;;;;46.15;10.25;;;;;;;38.60;31.33;97280.41;4910779;29;20072;-68
2022/05/19 09:53:19;;;;;;;38.80;8.25;;;;;;;38.48;31.20;97274.38;4892214;29;20052;-68
2022/05/19 09:55:57;;;;;;;36.75;8.30;;;;;;;38.58;30.85;97280.69;4911003;29;20475;-68
2022/05/19 09:58:49;;;;;;;38.55;8.02;;;;;;;38.57;29.42;97270.97;4911420;29;20096;-66
2022/05/19 10:01:45;;;;;;;40.33;9.15;;;;;;;38.59;31.11;97266.16;4910985;29;20047;-67
2022/05/19 10:04:41;;;;;;;47.58;9.30;;;;;;;38.61;30.64;97263.19;4910859;29;20119;-67
2022/05/19 10:07:27;;;;;;;39.13;8.25;;;;;;;38.56;29.60;97258.56;4914609;29;20051;-67
2022/05/19 10:10:31;;;;;;;41.30;8.38;;;;;;;38.62;29.95;97256.75;4892090;29;20084;-67
2022/05/19 10:13:21;;;;;;;44.88;8.90;;;;;;;38.60;30.32;97253.50;4915552;29;20051;-66
2022/05/19 10:16:20;;;;;;;35.08;8.13;;;;;;;38.59;29.14;97246.47;4907240;29;20048;-65
2022/05/19 10:19:12;;;;;;;33.13;7.63;;;;;;;38.59;31.18;97236.53;4905527;29;20056;-66
2022/05/19 10:22:31;;;;;;;40.00;9.57;;;;;;;38.51;29.49;97244.28;4908171;29;20587;-65
2022/05/19 10:25:34;;;;;;;34.05;7.55;;;;;;;38.48;28.69;97245.56;4908669;29;20071;-66
2022/05/19 10:31:54;;;;;;;47.00;10.02;;;;;;;38.43;27.72;97237.47;4910516;29;20360;-66
2022/05/19 10:35:14;;;;;;;42.83;8.07;;;;;;;38.49;26.48;97238.31;4908235;29;20122;-66
2022/05/19 10:38:40;;;;;;;27.70;6.53;;;;;;;38.34;30.87;97227.44;4910840;29;20147;-66
2022/05/19 10:42:04;;;;;;;51.75;8.20;;;;;;;38.15;30.82;97224.38;4905750;29;20055;-66
2022/05/19 10:45:04;;;;;;;;;;;;;;;37.94;29.82;97217.97;4907169;29;20139;-66
2022/05/19 10:48:18;;;;;;;27.30;6.88;;;;;;;37.77;32.15;97218.09;4907764;29;19930;-65
2022/05/19 10:51:00;;;;;;;63.47;9.98;;;;;;;37.81;30.76;97226.47;4907715;29;20108;-65
2022/05/19 10:54:26;;;;;;;35.08;8.48;;;;;;;37.75;32.50;97214.03;4906702;29;20074;-65
2022/05/19 10:57:27;;;;;;;24.90;6.65;;;;;;;37.66;32.33;97205.63;4909134;29;20052;-66
2022/05/19 11:00:36;;;;;;;30.45;6.68;;;;;;;37.41;33.45;97205.34;4908520;29;20062;-66
2022/05/19 11:03:41;;;;;;;32.35;6.10;;;;;;;37.36;33.52;97194.53;4908303;29;20056;-65
2022/05/19 11:06:25;;;;;;;37.28;7.05;;;;;;;37.64;31.36;97212.31;4909527;29;20076;-65
2022/05/19 11:09:23;;;;;;;35.42;7.53;;;;;;;37.61;30.94;97202.06;4909192;29;20123;-65
2022/05/19 11:12:35;;;;;;;33.05;8.13;;;;;;;37.46;34.35;97195.44;4891864;29;20048;-65
2022/05/19 11:15:41;;;;;;;46.08;8.70;;;;;;;37.30;31.32;97190.16;4889103;29;20217;-65
2022/05/19 11:18:36;;;;;;;35.40;7.53;;;;;;;37.10;35.40;97186.19;4909193;29;20132;-65
2022/05/19 11:21:45;;;;;;;42.65;9.52;;;;;;;37.24;32.47;97183.94;4909198;29;20408;-66
2022/05/19 11:27:54;;;;;;;35.22;8.38;;;;;;;37.09;33.84;97173.00;4892107;29;20067;-65
2022/05/19 11:30:52;;;;;;;41.08;9.45;;;;;;;37.18;32.95;97174.22;4909801;29;20056;-65
2022/05/19 11:33:39;;;;;;;36.22;8.32;;;;;;;37.20;33.02;97182.03;4908177;29;20060;-64
2022/05/19 11:36:34;;;;;;;42.75;8.35;;;;;;;37.12;33.61;97177.84;4909723;29;20131;-64
2022/05/19 11:39:33;;;;;;;36.25;8.07;;;;;;;37.10;33.14;97178.13;4909352;29;20092;-64
2022/05/19 11:42:53;;;;;;;42.00;7.53;;;;;;;36.98;33.63;97168.56;4890130;29;20053;-64
2022/05/19 11:45:51;;;;;;;37.57;8.47;;;;;;;36.91;33.13;97159.88;4890721;29;20077;-64
2022/05/19 11:55:33;;;;;;;;;;;;;;;36.78;32.75;97140.44;4907970;29;20067;-64
2022/05/19 11:58:24;;;;;;;35.08;7.55;;;;;;;36.70;34.27;97140.88;4909576;29;19937;-65
2022/05/19 12:01:32;;;;;;;29.60;7.78;;;;;;;36.61;34.51;97139.66;4906626;29;20091;-65
2022/05/19 12:04:37;;;;;;;48.88;8.27;;;;;;;36.56;32.44;97136.88;4890128;29;20389;-64
2022/05/19 12:07:33;;;;;;;36.00;9.40;;;;;;;36.54;33.96;97148.94;4902142;29;20048;-64
2022/05/19 12:10:26;;;;;;;46.10;8.90;;;;;;;36.48;34.61;97149.94;4910600;29;20132;-64
2022/05/19 12:13:46;;;;;;;45.45;8.25;;;;;;;36.41;36.00;97150.09;4910124;29;20293;-65
2022/05/19 12:16:52;;;;;;;41.35;8.27;;;;;;;36.41;35.00;97155.47;4906747;29;20052;-67
2022/05/19 12:19:44;;;;;;;43.67;9.95;;;;;;;36.41;35.08;97167.03;4913110;29;20879;-65
2022/05/19 12:22:48;;;;;;;48.45;8.57;;;;;;;36.32;36.13;97162.34;4912939;29;20059;-65
2022/05/19 12:25:56;;;;;;;50.00;9.15;;;;;;;36.34;34.05;97162.88;4897708;29;20052;-66
2022/05/19 12:29:07;;;;;;;39.30;8.15;;;;;;;36.27;35.20;97170.31;4912657;29;20060;-65
2022/05/19 12:31:59;;;;;;;58.17;8.18;;;;;;;36.14;37.30;97170.63;4910671;29;20048;-65
2022/05/19 12:34:58;;;;;;;59.90;8.95;;;;;;;36.10;35.38;97181.03;4908714;29;20049;-63
2022/05/19 12:37:34;;;;;;;42.15;8.25;;;;;;;36.09;37.60;97173.22;4926498;29;20047;-65
2022/05/19 12:40:50;;;;;;;39.75;8.40;;;;;;;36.07;34.52;97175.34;4909003;29;20048;-65
2022/05/19 12:43:42;;;;;;;58.38;8.50;;;;;;;36.08;33.70;97176.97;4911936;29;20490;-65
2022/05/19 12:46:34;;;;;;;52.40;8.25;;;;;;;36.04;33.36;97188.19;4911474;29;20048;-65
2022/05/19 12:49:29;;;;;;;37.40;7.90;;;;;;;36.01;32.99;97183.31;4913445;29;20786;-64
2022/05/19 12:52:19;;;;;;;47.22;7.85;;;;;;;36.02;34.35;97179.56;4892730;29;20057;-64
2022/05/19 12:55:32;;;;;;;39.90;8.43;;;;;;;35.94;35.40;97187.22;4902924;29;20499;-64
2022/05/19 12:58:34;;;;;;;39.85;8.25;;;;;;;35.83;34.20;97180.88;4892991;29;20060;-65
2022/05/19 13:01:52;;;;;;;46.83;7.95;;;;;;;35.79;34.95;97178.91;4910065;29;20056;-65
2022/05/19 13:04:50;;;;;;;32.00;9.02;;;;;;;35.70;34.64;97191.88;4921859;29;20059;-64
2022/05/19 13:07:36;;;;;;;49.28;7.82;;;;;;;35.62;34.08;97184.22;4917211;29;20531;-65
2022/05/19 13:10:35;;;;;;;35.58;8.35;;;;;;;35.55;36.49;97189.75;4911577;29;20071;-66
2022/05/19 13:13:39;;;;;;;33.50;7.20;;;;;;;35.43;34.64;97198.91;4910893;29;20048;-65
2022/05/19 13:16:30;;;;;;;53.83;8.00;;;;;;;35.35;34.61;97194.75;4910612;29;20401;-65
2022/05/19 13:19:24;;;;;;;57.47;9.05;;;;;;;35.29;36.19;97201.06;4899236;29;20084;-63
2022/05/19 13:22:09;;;;;;;47.05;9.45;;;;;;;35.21;35.71;97199.53;4893518;29;20131;-64
2022/05/19 13:24:59;;;;;;;38.47;9.15;;;;;;;35.08;38.89;97199.84;4902544;29;20051;-64
2022/05/19 13:30:51;;;;;;;41.85;9.13;;;;;;;34.80;39.11;97205.16;4910693;29;20056;-63
2022/05/19 13:33:46;;;;;;;35.10;8.02;;;;;;;34.70;37.39;97202.22;4928965;29;20055;-63
2022/05/19 13:36:37;;;;;;;50.10;8.98;;;;;;;34.62;39.50;97202.59;4928138;29;20110;-66
2022/05/19 13:39:22;;;;;;;40.53;8.52;;;;;;;34.43;44.55;97188.53;4928669;29;20095;-65
2022/05/19 13:42:12;;;;;;;58.90;8.57;;;;;;;34.35;43.19;97189.69;4929756;29;20075;-63
2022/05/19 13:45:07;;;;;;;56.45;9.07;;;;;;;34.23;51.55;97182.72;4928485;29;20111;-64
2022/05/19 13:47:51;;;;;;;30.73;7.78;;;;;;;34.08;54.97;97188.53;4929194;29;20052;-64